Main page
METAR-TAF:

METAR-TAF

Airports :

Yap International Airport

Yap, Micronesia

latitude: 09-29N, longitude: 138-05E, elevation: 28 m

Current weather observation

The report was made 31 minutes ago, at 03:51 UTC
Wind 5 kt from variable directions
Temperature 29°C
Humidity 89%
Pressure 1008 hPa
Visibility: 19.3 km
Scattered clouds at a height of 1800 ft, Towering cumulus.
Scattered clouds at a height of 14000 ft
Overcast at a height of 30000 ft

METAR: PTYA 170351Z VRB05KT 12SM SCT018TCU SCT140 OVC300 29/27 A2978 RMK SHRAE10 TCU E-SE SLP084 T02870265

Time: 14:22 (04:22 UTC)

Forecast

The report was made 5 hours and 2 minutes ago, at 23:20 UTC
Forecast valid from 17 at 00 UTC to 17 at 24 UTC
Wind 8 kt from the Northwest
Visibility: 10 km
Scattered clouds at a height of 1600 ft
Broken clouds at a height of 30000 ft
showers in vicinity

TAF: PTYA 162320Z 1700/1724 32008KT P6SM VCSH SCT016 BKN300

Weather observations and forecasts of more than 4000 airports (METAR and TAF reports).

The available stations are represented by yellow and red dots on the map.

Hover mouse over dot to see the name of the station.

Then click to see weather observations and forecasts.

To change the map : click on the green buttons with a black cross to zoom in, on the green button with a dash to zoom out, or on the green arrows for adjacent maps.


METAR-TAF: